createdAt,value
2022-09-21T00:02:35.488Z,12.20
2022-09-21T00:06:37.492Z,11.30
2022-09-21T00:10:39.708Z,11.80
2022-09-21T00:14:43.733Z,11.90
2022-09-21T00:18:45.419Z,12.20
2022-09-21T00:22:47.953Z,12.70
2022-09-21T00:26:49.610Z,12.20
2022-09-21T00:30:52.030Z,11.60
2022-09-21T00:34:53.783Z,12.20
2022-09-21T00:38:57.832Z,12.30
2022-09-21T00:43:17.277Z,11.70
2022-09-21T00:47:31.563Z,11.80
2022-09-21T00:51:33.384Z,12.10
2022-09-21T00:55:41.797Z,12.00
2022-09-21T00:59:45.566Z,12.10
2022-09-21T01:03:48.188Z,11.80
2022-09-21T01:07:49.833Z,11.20
2022-09-21T01:12:29.784Z,11.00
2022-09-21T01:16:34.315Z,10.10
2022-09-21T01:20:38.715Z,10.30
2022-09-21T01:24:50.172Z,9.30
2022-09-21T01:29:18.358Z,8.60
2022-09-21T01:33:54.180Z,9.10
2022-09-21T01:38:06.369Z,9.70
2022-09-21T01:42:09.623Z,9.10
2022-09-21T01:46:17.025Z,9.30
2022-09-21T01:50:20.432Z,9.60
2022-09-21T01:54:28.512Z,9.60
2022-09-21T01:58:45.252Z,9.50
2022-09-21T02:03:03.281Z,10.40
2022-09-21T02:07:06.221Z,9.90
2022-09-21T02:11:08.205Z,10.20
2022-09-21T02:15:10.429Z,10.60
2022-09-21T02:19:38.029Z,10.40
2022-09-21T02:24:13.920Z,10.30
2022-09-21T02:28:41.890Z,10.10
2022-09-21T02:33:15.193Z,10.10
2022-09-21T02:37:16.797Z,10.40
2022-09-21T02:42:03.928Z,10.80
2022-09-21T02:46:18.252Z,9.50
2022-09-21T02:50:57.025Z,9.80
2022-09-21T02:55:00.128Z,10.50
2022-09-21T02:59:05.486Z,10.80
2022-09-21T03:03:18.945Z,11.00
2022-09-21T03:07:20.578Z,10.40
2022-09-21T03:11:22.300Z,10.40
2022-09-21T03:15:27.354Z,10.60
2022-09-21T03:19:29.246Z,11.00
2022-09-21T03:23:30.954Z,10.90
2022-09-21T03:27:32.668Z,9.40
2022-09-21T03:31:34.579Z,9.50
2022-09-21T03:35:36.300Z,9.50
2022-09-21T03:39:38.099Z,9.90
2022-09-21T03:43:39.697Z,10.50
2022-09-21T03:47:42.165Z,10.80
2022-09-21T03:51:44.019Z,11.30
2022-09-21T03:55:45.655Z,11.50
2022-09-21T03:59:47.357Z,11.80
2022-09-21T04:03:51.645Z,11.30
2022-09-21T04:07:55.226Z,11.00
2022-09-21T04:11:56.917Z,11.10
2022-09-21T04:15:58.615Z,9.80
2022-09-21T04:20:01.098Z,9.90
2022-09-21T04:24:04.139Z,8.70
2022-09-21T04:28:06.374Z,9.10
2022-09-21T04:32:08.078Z,9.90
2022-09-21T04:36:09.717Z,9.60
2022-09-21T04:40:11.507Z,9.20
2022-09-21T04:44:13.265Z,8.80
2022-09-21T04:48:15.179Z,9.60
2022-09-21T04:52:19.152Z,8.70
2022-09-21T04:56:21.117Z,8.80
2022-09-21T05:00:22.764Z,9.30
2022-09-21T05:04:24.389Z,9.20
2022-09-21T05:08:45.927Z,8.90
2022-09-21T05:12:48.153Z,8.20
2022-09-21T05:16:49.814Z,8.40
2022-09-21T05:20:59.658Z,8.10
2022-09-21T05:25:01.343Z,8.90
2022-09-21T05:29:03.460Z,8.90
2022-09-21T05:33:06.165Z,8.50
2022-09-21T05:37:37.793Z,8.40
2022-09-21T05:41:40.014Z,8.70
2022-09-21T05:45:47.788Z,9.30
2022-09-21T05:50:11.727Z,9.50
2022-09-21T05:54:45.755Z,9.10
2022-09-21T05:59:05.075Z,9.80
2022-09-21T06:03:29.610Z,10.10
2022-09-21T06:07:31.276Z,10.30
2022-09-21T06:11:34.679Z,10.00
2022-09-21T06:15:38.445Z,9.70
2022-09-21T06:19:40.201Z,9.80
2022-09-21T06:23:41.855Z,9.80
2022-09-21T06:27:43.481Z,9.70
2022-09-21T06:31:45.119Z,9.00
2022-09-21T06:35:56.757Z,9.40
2022-09-21T06:39:59.337Z,10.20
2022-09-21T06:44:01.119Z,9.70
2022-09-21T06:48:03.064Z,9.50
2022-09-21T06:52:04.842Z,10.00
2022-09-21T06:56:08.495Z,9.60
2022-09-21T07:00:11.620Z,10.10
2022-09-21T07:04:13.260Z,10.20
2022-09-21T07:12:36.964Z,10.30
2022-09-21T07:16:39.060Z,10.20
2022-09-21T07:20:41.553Z,10.50
2022-09-21T07:24:43.215Z,11.30
2022-09-21T07:28:44.881Z,11.50
2022-09-21T07:32:46.649Z,11.70
2022-09-21T07:36:48.291Z,12.50
2022-09-21T07:40:50.577Z,12.40
2022-09-21T07:45:03.269Z,12.80
2022-09-21T07:49:05.989Z,13.70
2022-09-21T07:53:07.622Z,13.90
2022-09-21T07:57:27.749Z,14.20
2022-09-21T08:01:30.075Z,14.70
2022-09-21T08:05:32.813Z,14.60
2022-09-21T08:09:34.775Z,14.90
2022-09-21T08:13:36.408Z,15.00
2022-09-21T08:17:38.851Z,15.00
2022-09-21T08:21:41.321Z,15.00
2022-09-21T08:25:43.482Z,14.80
2022-09-21T08:29:46.098Z,15.00
2022-09-21T08:33:48.977Z,15.30
2022-09-21T08:37:54.453Z,15.30
2022-09-21T08:42:37.834Z,15.30
2022-09-21T08:46:40.484Z,14.90
2022-09-21T08:50:47.171Z,15.10
2022-09-21T08:54:51.661Z,15.70
2022-09-21T08:58:53.416Z,16.10
2022-09-21T09:03:10.415Z,15.50
2022-09-21T09:07:30.300Z,15.70
2022-09-21T09:11:44.703Z,15.50
2022-09-21T09:15:55.322Z,15.90
2022-09-21T09:20:04.801Z,15.40
2022-09-21T09:24:48.376Z,14.90
2022-09-21T09:29:07.008Z,15.10
2022-09-21T09:33:30.829Z,15.50
2022-09-21T09:37:39.874Z,15.40
2022-09-21T09:42:03.116Z,16.00
2022-09-21T09:46:29.501Z,16.10
2022-09-21T09:50:36.147Z,16.00
2022-09-21T09:54:38.007Z,16.10
2022-09-21T09:58:59.537Z,16.00
2022-09-21T10:03:01.229Z,16.10
2022-09-21T10:07:02.985Z,16.20
2022-09-21T10:11:06.126Z,16.40
2022-09-21T10:15:12.256Z,16.30
2022-09-21T10:19:24.390Z,15.80
2022-09-21T10:23:28.597Z,16.10
2022-09-21T10:27:34.993Z,15.80
2022-09-21T10:31:36.775Z,16.10
2022-09-21T10:35:50.132Z,16.70
2022-09-21T10:39:51.778Z,16.60
2022-09-21T10:43:54.687Z,16.80
2022-09-21T10:47:59.827Z,16.80
2022-09-21T10:52:02.822Z,16.00
2022-09-21T10:56:17.807Z,15.00
2022-09-21T11:00:26.133Z,16.10
2022-09-21T11:04:49.639Z,15.90
2022-09-21T11:09:00.318Z,16.20
2022-09-21T11:13:43.605Z,16.50
2022-09-21T11:17:54.915Z,16.70
2022-09-21T11:22:38.124Z,16.60
2022-09-21T11:26:56.882Z,15.90
2022-09-21T11:31:31.082Z,16.00
2022-09-21T11:36:03.474Z,16.70
2022-09-21T11:40:19.385Z,16.70
2022-09-21T11:44:42.586Z,16.80
2022-09-21T11:49:09.093Z,17.10
2022-09-21T11:53:26.714Z,16.70
2022-09-21T11:57:35.525Z,16.20
2022-09-21T12:01:54.518Z,16.40
2022-09-21T12:06:30.626Z,17.30
2022-09-21T12:10:38.491Z,16.80
2022-09-21T12:14:45.876Z,17.20
2022-09-21T12:19:17.666Z,17.30
2022-09-21T12:23:36.008Z,16.70
2022-09-21T12:27:41.474Z,17.10
2022-09-21T12:32:14.496Z,17.30
2022-09-21T12:36:44.503Z,17.40
2022-09-21T12:40:55.652Z,16.80
2022-09-21T12:45:11.995Z,17.30
2022-09-21T12:49:29.811Z,17.40
2022-09-21T12:53:35.316Z,17.90
2022-09-21T12:58:10.929Z,18.00
2022-09-21T13:02:33.211Z,17.70
2022-09-21T13:06:38.114Z,17.70
2022-09-21T13:11:00.911Z,17.40
2022-09-21T13:15:13.136Z,16.90
2022-09-21T13:19:23.120Z,16.60
2022-09-21T13:23:42.244Z,16.50
2022-09-21T13:28:15.469Z,16.40
2022-09-21T13:32:17.221Z,16.50
2022-09-21T13:36:36.356Z,16.50
2022-09-21T13:40:38.096Z,16.90
2022-09-21T13:44:43.706Z,17.60
2022-09-21T13:48:55.568Z,17.80
2022-09-21T13:53:04.139Z,17.90
2022-09-21T13:57:29.081Z,17.80
2022-09-21T14:01:49.702Z,17.70
2022-09-21T14:06:00.917Z,18.00
2022-09-21T14:10:07.005Z,17.70
2022-09-21T14:14:21.361Z,17.90
2022-09-21T14:18:37.756Z,18.20
2022-09-21T14:22:40.737Z,18.00
2022-09-21T14:26:42.456Z,17.90
2022-09-21T14:30:52.587Z,17.90
2022-09-21T14:34:59.822Z,18.10
2022-09-21T14:39:04.588Z,18.10
2022-09-21T14:43:15.562Z,18.00
2022-09-21T14:47:31.931Z,17.80
2022-09-21T14:51:55.823Z,18.00
2022-09-21T14:56:10.181Z,18.10
2022-09-21T15:00:26.543Z,17.40
2022-09-21T15:04:41.614Z,17.50
2022-09-21T15:09:30.411Z,17.90
2022-09-21T15:13:47.778Z,17.30
2022-09-21T15:17:59.354Z,18.20
2022-09-21T15:22:18.030Z,18.20
2022-09-21T15:26:24.980Z,18.80
2022-09-21T15:30:29.500Z,18.40
2022-09-21T15:34:32.037Z,18.90
2022-09-21T15:38:36.202Z,18.70
2022-09-21T15:42:55.846Z,18.50
2022-09-21T15:47:00.201Z,18.40
2022-09-21T15:51:31.795Z,18.40
2022-09-21T15:55:33.717Z,18.30
2022-09-21T15:59:35.813Z,18.40
2022-09-21T16:03:38.942Z,18.50
2022-09-21T16:07:41.487Z,18.20
2022-09-21T16:11:43.143Z,18.20
2022-09-21T16:16:01.009Z,18.30
2022-09-21T16:20:17.472Z,17.90
2022-09-21T16:24:22.876Z,18.00
2022-09-21T16:28:37.915Z,18.10
2022-09-21T16:32:58.558Z,18.00
2022-09-21T16:37:02.229Z,18.00
2022-09-21T16:41:04.205Z,17.80
2022-09-21T16:45:16.624Z,17.80
2022-09-21T16:49:20.489Z,17.60
2022-09-21T16:53:23.507Z,17.80
2022-09-21T16:57:26.013Z,17.80
2022-09-21T17:01:28.511Z,17.40
2022-09-21T17:05:30.282Z,17.50
2022-09-21T17:09:38.352Z,17.10
2022-09-21T17:13:40.538Z,17.30
2022-09-21T17:17:42.254Z,17.00
2022-09-21T17:21:45.472Z,17.10
2022-09-21T17:25:47.101Z,16.90
2022-09-21T17:29:49.894Z,16.20
2022-09-21T17:33:51.796Z,16.70
2022-09-21T17:37:53.417Z,16.50
2022-09-21T17:42:25.704Z,16.80
2022-09-21T17:46:31.152Z,16.70
2022-09-21T17:50:33.131Z,16.80
2022-09-21T17:54:36.180Z,15.90
2022-09-21T17:59:02.855Z,15.60
2022-09-21T18:03:13.856Z,15.20
2022-09-21T18:07:17.313Z,14.70
2022-09-21T18:11:27.989Z,14.50
2022-09-21T18:15:49.871Z,14.30
2022-09-21T18:20:18.281Z,14.30
2022-09-21T18:24:31.316Z,14.50
2022-09-21T18:28:40.636Z,14.70
2022-09-21T18:33:16.590Z,15.00
2022-09-21T18:37:42.507Z,15.10
2022-09-21T18:41:50.596Z,15.30
2022-09-21T18:46:01.725Z,15.00
2022-09-21T18:50:31.806Z,14.80
2022-09-21T18:54:33.883Z,14.40
2022-09-21T18:58:35.974Z,14.50
2022-09-21T19:02:48.753Z,14.40
2022-09-21T19:07:30.351Z,14.60
2022-09-21T19:11:57.112Z,14.30
2022-09-21T19:16:13.874Z,14.30
2022-09-21T19:20:33.951Z,13.80
2022-09-21T19:25:02.359Z,13.90
2022-09-21T19:29:22.534Z,14.10
2022-09-21T19:33:49.352Z,13.80
2022-09-21T19:37:53.977Z,13.00
2022-09-21T19:41:55.949Z,13.50
2022-09-21T19:46:17.226Z,13.90
2022-09-21T19:50:48.477Z,14.20
2022-09-21T19:55:08.763Z,13.50
2022-09-21T19:59:29.304Z,13.60
2022-09-21T20:03:42.182Z,13.70
2022-09-21T20:07:58.162Z,13.50
2022-09-21T20:12:25.156Z,13.40
2022-09-21T20:16:44.751Z,13.10
2022-09-21T20:20:46.551Z,13.10
2022-09-21T20:24:58.011Z,12.20
2022-09-21T20:28:59.969Z,12.30
2022-09-21T20:33:06.731Z,12.40
2022-09-21T20:37:14.363Z,12.90
2022-09-21T20:41:17.123Z,13.40
2022-09-21T20:45:19.462Z,13.30
2022-09-21T20:49:21.109Z,13.10
2022-09-21T20:53:22.808Z,13.00
2022-09-21T20:57:24.680Z,12.80
2022-09-21T21:01:27.001Z,12.80
2022-09-21T21:05:29.192Z,12.80
2022-09-21T21:09:30.947Z,13.00
2022-09-21T21:13:34.319Z,12.40
2022-09-21T21:17:36.114Z,12.50
2022-09-21T21:21:37.976Z,12.10
2022-09-21T21:25:39.826Z,12.50
2022-09-21T21:29:42.277Z,12.20
2022-09-21T21:33:43.936Z,12.40
2022-09-21T21:37:45.651Z,12.10
2022-09-21T21:41:47.589Z,11.90
2022-09-21T21:45:53.405Z,11.60
2022-09-21T21:49:55.116Z,11.80
2022-09-21T21:53:56.834Z,11.40
2022-09-21T21:57:58.552Z,11.80
2022-09-21T22:02:00.272Z,12.50
2022-09-21T22:06:03.952Z,12.40
2022-09-21T22:10:07.319Z,12.10
2022-09-21T22:14:09.298Z,11.80
2022-09-21T22:18:11.078Z,12.00
2022-09-21T22:22:13.292Z,12.10
2022-09-21T22:26:16.769Z,12.10
2022-09-21T22:30:18.440Z,11.50
2022-09-21T22:34:20.844Z,11.40
2022-09-21T22:38:22.496Z,11.70
2022-09-21T22:42:24.721Z,11.70
2022-09-21T22:46:28.079Z,11.30
2022-09-21T22:50:29.732Z,11.20
2022-09-21T22:54:31.344Z,11.20
2022-09-21T22:58:34.841Z,11.60
2022-09-21T23:02:36.469Z,12.10
2022-09-21T23:06:40.330Z,11.40
2022-09-21T23:10:41.950Z,11.00
2022-09-21T23:14:43.729Z,11.70
2022-09-21T23:18:47.249Z,11.20
2022-09-21T23:22:49.715Z,11.20
2022-09-21T23:26:53.327Z,11.00
2022-09-21T23:31:00.308Z,11.50
2022-09-21T23:35:02.128Z,11.80
2022-09-21T23:39:05.773Z,11.50
2022-09-21T23:43:07.548Z,11.30
2022-09-21T23:47:09.211Z,10.10
2022-09-21T23:51:11.527Z,10.90
2022-09-21T23:55:13.261Z,11.40
2022-09-21T23:59:14.962Z,11.20
